N65JT KLFT-KBTR
Flight info
| Callsign | N65JT |
|---|---|
| Flight time | 0h 21m |
| Altitude | 4000 |
| Route | ROSEY IBEKY |
| Aircraft | BE58/L-V/N |
Departure
| Time | 2026-04-21 15:35 |
|---|---|
| Airport | Lafayette Regional Airport (KLFT) |
Arrival
| Time | 2026-04-21 15:56 |
|---|---|
| Airport | Baton Rouge Metropolitan Airport (KBTR) |
| Time | Latitude | Longitude | Altitude | Speed | Heading |
|---|---|---|---|---|---|
| 2026-04-21 15:30 | 30.21205 | -91.98973 | 29 ft | 0 kts | 199° |
| 2026-04-21 15:32 | 30.21199 | -91.98975 | 29 ft | 10 kts | 197° |
| 2026-04-21 15:32 | 30.21052 | -91.98901 | 33 ft | 31 kts | 162° |
| 2026-04-21 15:32 | 30.20885 | -91.98846 | 36 ft | 20 kts | 172° |
| 2026-04-21 15:32 | 30.20734 | -91.98880 | 37 ft | 25 kts | 199° |
| 2026-04-21 15:33 | 30.20558 | -91.98985 | 37 ft | 29 kts | 216° |
| 2026-04-21 15:33 | 30.20396 | -91.99129 | 37 ft | 29 kts | 218° |
| 2026-04-21 15:33 | 30.20251 | -91.99274 | 37 ft | 20 kts | 225° |
| 2026-04-21 15:33 | 30.20157 | -91.99242 | 37 ft | 17 kts | 129° |
| 2026-04-21 15:34 | 30.20060 | -91.99101 | 36 ft | 26 kts | 129° |
| 2026-04-21 15:34 | 30.20033 | -91.98965 | 34 ft | 35 kts | 34° |
| 2026-04-21 15:34 | 30.20421 | -91.98606 | 72 ft | 94 kts | 39° |
| 2026-04-21 15:34 | 30.20993 | -91.98093 | 329 ft | 112 kts | 37° |
| 2026-04-21 15:35 | 30.21663 | -91.97564 | 686 ft | 118 kts | 37° |
| 2026-04-21 15:35 | 30.22315 | -91.97008 | 1062 ft | 123 kts | 44° |
| 2026-04-21 15:35 | 30.22957 | -91.96272 | 1317 ft | 135 kts | 53° |
| 2026-04-21 15:35 | 30.23524 | -91.95410 | 1667 ft | 136 kts | 66° |
| 2026-04-21 15:36 | 30.23888 | -91.94411 | 1954 ft | 140 kts | 75° |
| 2026-04-21 15:36 | 30.24251 | -91.93325 | 2224 ft | 145 kts | 74° |
| 2026-04-21 15:36 | 30.24620 | -91.92230 | 2515 ft | 148 kts | 73° |
| 2026-04-21 15:36 | 30.24997 | -91.91122 | 2810 ft | 148 kts | 75° |
| 2026-04-21 15:37 | 30.25349 | -91.89977 | 2979 ft | 155 kts | 76° |
| 2026-04-21 15:37 | 30.25682 | -91.88792 | 3252 ft | 153 kts | 78° |
| 2026-04-21 15:37 | 30.26028 | -91.87635 | 3535 ft | 153 kts | 75° |
| 2026-04-21 15:37 | 30.26400 | -91.86465 | 3709 ft | 159 kts | 75° |
| 2026-04-21 15:38 | 30.26891 | -91.85248 | 3731 ft | 171 kts | 68° |
| 2026-04-21 15:38 | 30.27341 | -91.84051 | 4179 ft | 154 kts | 75° |
| 2026-04-21 15:38 | 30.27711 | -91.82806 | 4021 ft | 174 kts | 77° |
| 2026-04-21 15:38 | 30.28045 | -91.81471 | 4115 ft | 169 kts | 79° |
| 2026-04-21 15:39 | 30.28389 | -91.80150 | 3859 ft | 176 kts | 77° |
| 2026-04-21 15:39 | 30.28744 | -91.78784 | 3658 ft | 176 kts | 78° |
| 2026-04-21 15:39 | 30.29118 | -91.77468 | 3592 ft | 171 kts | 76° |
| 2026-04-21 15:39 | 30.29498 | -91.76194 | 3575 ft | 164 kts | 76° |
| 2026-04-21 15:40 | 30.29900 | -91.74960 | 3526 ft | 162 kts | 73° |
| 2026-04-21 15:40 | 30.30316 | -91.73770 | 3541 ft | 156 kts | 73° |
| 2026-04-21 15:40 | 30.30723 | -91.72616 | 3494 ft | 156 kts | 73° |
| 2026-04-21 15:40 | 30.31143 | -91.71462 | 3508 ft | 153 kts | 73° |
| 2026-04-21 15:41 | 30.31547 | -91.70330 | 3476 ft | 151 kts | 77° |
| 2026-04-21 15:41 | 30.31756 | -91.69160 | 3454 ft | 148 kts | 85° |
| 2026-04-21 15:41 | 30.31922 | -91.67980 | 3418 ft | 149 kts | 86° |
| 2026-04-21 15:41 | 30.32069 | -91.66781 | 3320 ft | 152 kts | 85° |
| 2026-04-21 15:42 | 30.32235 | -91.65604 | 3417 ft | 145 kts | 85° |
| 2026-04-21 15:42 | 30.32392 | -91.64442 | 3413 ft | 146 kts | 85° |
| 2026-04-21 15:42 | 30.32574 | -91.63290 | 3414 ft | 146 kts | 85° |
| 2026-04-21 15:42 | 30.32756 | -91.62134 | 3414 ft | 147 kts | 85° |
| 2026-04-21 15:43 | 30.32938 | -91.60964 | 3415 ft | 147 kts | 85° |
| 2026-04-21 15:43 | 30.33124 | -91.59798 | 3414 ft | 148 kts | 84° |
| 2026-04-21 15:43 | 30.33309 | -91.58618 | 3413 ft | 148 kts | 85° |
| 2026-04-21 15:43 | 30.33479 | -91.57444 | 3411 ft | 148 kts | 86° |
| 2026-04-21 15:44 | 30.33648 | -91.56260 | 3414 ft | 148 kts | 85° |
| 2026-04-21 15:44 | 30.33812 | -91.55084 | 3414 ft | 148 kts | 85° |
| 2026-04-21 15:44 | 30.33979 | -91.53908 | 3414 ft | 149 kts | 85° |
| 2026-04-21 15:44 | 30.34144 | -91.52717 | 3414 ft | 149 kts | 85° |
| 2026-04-21 15:45 | 30.34308 | -91.51535 | 3416 ft | 149 kts | 85° |
| 2026-04-21 15:45 | 30.34474 | -91.50346 | 3418 ft | 149 kts | 85° |
| 2026-04-21 15:45 | 30.34644 | -91.49161 | 3414 ft | 149 kts | 85° |
| 2026-04-21 15:45 | 30.34814 | -91.47982 | 3401 ft | 150 kts | 85° |
| 2026-04-21 15:46 | 30.34981 | -91.46793 | 3400 ft | 150 kts | 85° |
| 2026-04-21 15:46 | 30.35154 | -91.45589 | 3396 ft | 149 kts | 85° |
| 2026-04-21 15:46 | 30.35327 | -91.44406 | 3398 ft | 149 kts | 86° |
| 2026-04-21 15:46 | 30.35497 | -91.43232 | 3395 ft | 149 kts | 85° |
| 2026-04-21 15:47 | 30.35669 | -91.42042 | 3396 ft | 149 kts | 86° |
| 2026-04-21 15:47 | 30.35847 | -91.40862 | 3396 ft | 148 kts | 85° |
| 2026-04-21 15:47 | 30.36019 | -91.39688 | 3399 ft | 148 kts | 86° |
| 2026-04-21 15:47 | 30.36055 | -91.39444 | 3398 ft | 148 kts | 86° |
| 2026-04-21 15:48 | 30.36138 | -91.38883 | 3400 ft | 148 kts | 85° |
| 2026-04-21 15:48 | 30.36309 | -91.37703 | 3401 ft | 149 kts | 86° |
| 2026-04-21 15:48 | 30.36484 | -91.36515 | 3400 ft | 149 kts | 85° |
| 2026-04-21 15:48 | 30.36660 | -91.35335 | 3398 ft | 149 kts | 85° |
| 2026-04-21 15:49 | 30.36836 | -91.34148 | 3401 ft | 149 kts | 86° |
| 2026-04-21 15:49 | 30.37020 | -91.32969 | 3403 ft | 151 kts | 81° |
| 2026-04-21 15:49 | 30.37578 | -91.31899 | 3410 ft | 159 kts | 54° |
| 2026-04-21 15:49 | 30.38391 | -91.31001 | 3353 ft | 164 kts | 49° |
| 2026-04-21 15:50 | 30.39224 | -91.30145 | 3251 ft | 160 kts | 48° |
| 2026-04-21 15:50 | 30.40053 | -91.29297 | 3145 ft | 156 kts | 49° |
| 2026-04-21 15:50 | 30.40851 | -91.28487 | 3037 ft | 146 kts | 50° |
| 2026-04-21 15:50 | 30.41575 | -91.27724 | 2925 ft | 135 kts | 52° |
| 2026-04-21 15:51 | 30.42229 | -91.27003 | 2797 ft | 123 kts | 52° |
| 2026-04-21 15:51 | 30.42823 | -91.26346 | 2668 ft | 114 kts | 52° |
| 2026-04-21 15:51 | 30.43366 | -91.25760 | 2549 ft | 101 kts | 53° |
| 2026-04-21 15:51 | 30.43881 | -91.25221 | 2400 ft | 100 kts | 52° |
| 2026-04-21 15:52 | 30.44391 | -91.24683 | 2256 ft | 100 kts | 52° |
| 2026-04-21 15:52 | 30.44900 | -91.24132 | 2108 ft | 100 kts | 52° |
| 2026-04-21 15:52 | 30.45408 | -91.23579 | 1956 ft | 100 kts | 52° |
| 2026-04-21 15:52 | 30.45909 | -91.23041 | 1874 ft | 94 kts | 53° |
| 2026-04-21 15:53 | 30.46399 | -91.22519 | 1848 ft | 96 kts | 51° |
| 2026-04-21 15:53 | 30.46898 | -91.21967 | 1835 ft | 104 kts | 53° |
| 2026-04-21 15:53 | 30.47445 | -91.21352 | 1758 ft | 114 kts | 52° |
| 2026-04-21 15:53 | 30.48008 | -91.20696 | 1632 ft | 114 kts | 53° |
| 2026-04-21 15:54 | 30.48559 | -91.20048 | 1529 ft | 111 kts | 52° |
| 2026-04-21 15:54 | 30.49093 | -91.19423 | 1427 ft | 107 kts | 51° |
| 2026-04-21 15:54 | 30.49639 | -91.18838 | 1300 ft | 107 kts | 46° |
| 2026-04-21 15:54 | 30.50209 | -91.18265 | 1080 ft | 108 kts | 47° |
| 2026-04-21 15:55 | 30.50761 | -91.17678 | 865 ft | 108 kts | 49° |
| 2026-04-21 15:55 | 30.51288 | -91.17078 | 681 ft | 105 kts | 48° |
| 2026-04-21 15:55 | 30.51800 | -91.16484 | 425 ft | 102 kts | 47° |
| 2026-04-21 15:55 | 30.52298 | -91.15929 | 156 ft | 96 kts | 45° |
| 2026-04-21 15:56 | 30.52718 | -91.15453 | 63 ft | 70 kts | 43° |
| 2026-04-21 15:56 | 30.53027 | -91.15119 | 66 ft | 37 kts | 46° |
| 2026-04-21 15:56 | 30.52984 | -91.14951 | 66 ft | 26 kts | 131° |
| 2026-04-21 15:56 | 30.52855 | -91.14790 | 66 ft | 27 kts | 135° |
| 2026-04-21 15:57 | 30.52715 | -91.14717 | 66 ft | 15 kts | 212° |
| 2026-04-21 15:57 | 30.52704 | -91.14762 | 66 ft | 0 kts | 181° |